Time,TemperatureF,DewpointF,PressureIn,WindDirection,WindDirectionDegrees,WindSpeedMPH,WindSpeedGustMPH,Humidity,HourlyPrecipIn,Conditions,Clouds,dailyrainin,SoftwareType,DateUTC
2013-01-04 00:00:00,20.3,16.5,29.91,SSE,158,0.0,0.0,85,0.00,,---,0.00,VWS V14.01,2013-01-04 05:00:00,
2013-01-04 00:02:00,20.3,16.5,29.91,North,0,0.0,0.0,85,0.00,,---,0.00,VWS V14.01,2013-01-04 05:02:00,
2013-01-04 00:03:00,20.3,16.5,29.91,ESE,112,0.0,0.0,85,0.00,,---,0.00,VWS V14.01,2013-01-04 05:03:00,
2013-01-04 00:08:00,20.3,16.5,29.91,NW,315,0.0,0.0,85,0.00,,---,0.00,VWS V14.01,2013-01-04 05:08:00,
2013-01-04 00:13:00,20.3,16.5,29.91,NW,315,0.0,0.0,85,0.00,,---,0.00,VWS V14.01,2013-01-04 05:13:00,
2013-01-04 00:18:00,20.3,16.5,29.91,NW,315,0.0,0.0,85,0.00,,---,0.00,VWS V14.01,2013-01-04 05:18:00,
2013-01-04 00:23:00,20.4,16.6,29.90,WSW,248,0.0,0.0,85,0.00,,---,0.00,VWS V14.01,2013-01-04 05:23:00,
2013-01-04 00:28:00,20.4,16.6,29.90,SE,135,0.0,0.0,85,0.00,,---,0.00,VWS V14.01,2013-01-04 05:28:00,
2013-01-04 00:33:00,20.4,16.6,29.90,NW,315,0.0,0.0,85,0.00,,---,0.00,VWS V14.01,2013-01-04 05:33:00,
2013-01-04 00:38:00,20.4,16.6,29.89,WNW,292,0.0,0.0,85,0.00,,---,0.00,VWS V14.01,2013-01-04 05:38:00,
2013-01-04 00:43:00,20.4,16.6,29.90,WNW,292,0.0,0.0,85,0.00,,---,0.00,VWS V14.01,2013-01-04 05:43:00,
2013-01-04 00:48:00,20.4,16.6,29.90,SE,135,0.0,0.0,85,0.00,,---,0.00,VWS V14.01,2013-01-04 05:48:00,
2013-01-04 00:53:00,20.8,17.0,29.90,WNW,292,0.0,0.0,85,0.00,,---,0.00,VWS V14.01,2013-01-04 05:53:00,
2013-01-04 00:58:00,20.6,16.8,29.90,WNW,292,0.0,0.0,85,0.00,,---,0.00,VWS V14.01,2013-01-04 05:58:00,
2013-01-04 01:03:00,20.8,17.0,29.90,WNW,292,0.0,0.0,85,0.00,,---,0.00,VWS V14.01,2013-01-04 06:03:00,
2013-01-04 01:08:00,20.8,17.0,29.90,NW,315,0.0,0.0,85,0.00,,---,0.00,VWS V14.01,2013-01-04 06:08:00,
2013-01-04 01:13:00,20.8,17.0,29.90,NW,315,0.0,0.0,85,0.00,,---,0.00,VWS V14.01,2013-01-04 06:13:00,
2013-01-04 01:18:00,20.8,17.0,29.90,NW,315,0.0,0.0,85,0.00,,---,0.00,VWS V14.01,2013-01-04 06:18:00,
2013-01-04 01:23:00,20.8,17.0,29.90,North,0,0.0,0.0,85,0.00,,---,0.00,VWS V14.01,2013-01-04 06:23:00,
2013-01-04 01:28:00,20.8,17.0,29.90,WSW,248,0.0,0.0,85,0.00,,---,0.00,VWS V14.01,2013-01-04 06:28:00,
2013-01-04 01:33:00,21.0,17.2,29.90,East,90,0.0,0.0,85,0.00,,---,0.00,VWS V14.01,2013-01-04 06:33:00,
2013-01-04 01:38:00,21.0,17.2,29.90,WSW,248,0.0,0.0,85,0.00,,---,0.00,VWS V14.01,2013-01-04 06:38:00,
2013-01-04 01:43:00,21.0,17.2,29.90,NW,315,0.0,0.0,85,0.00,,---,0.00,VWS V14.01,2013-01-04 06:43:00,
2013-01-04 01:48:00,21.3,17.5,29.90,North,0,0.0,0.0,85,0.00,,---,0.00,VWS V14.01,2013-01-04 06:48:00,
2013-01-04 01:53:00,21.3,17.5,29.90,NW,315,0.0,0.0,85,0.00,,---,0.00,VWS V14.01,2013-01-04 06:53:00,
2013-01-04 01:57:00,21.5,17.7,29.90,WNW,292,0.0,0.0,85,0.00,,---,0.00,VWS V14.01,2013-01-04 06:57:00,
2013-01-04 02:02:00,21.5,17.7,29.90,NNW,338,0.0,0.0,85,0.00,,---,0.00,VWS V14.01,2013-01-04 07:02:00,
2013-01-04 02:07:00,21.7,18.2,29.90,NW,315,0.0,0.0,86,0.00,,---,0.00,VWS V14.01,2013-01-04 07:07:00,
2013-01-04 02:12:00,21.7,18.2,29.90,NW,315,0.0,0.0,86,0.00,,---,0.00,VWS V14.01,2013-01-04 07:12:00,
2013-01-04 02:17:00,21.9,18.4,29.90,NW,315,0.0,0.0,86,0.00,,---,0.00,VWS V14.01,2013-01-04 07:17:00,
2013-01-04 02:22:00,21.9,18.4,29.90,NW,315,0.0,0.0,86,0.00,,---,0.00,VWS V14.01,2013-01-04 07:22:00,
2013-01-04 02:27:00,21.9,18.4,29.90,ENE,68,0.0,0.0,86,0.00,,---,0.00,VWS V14.01,2013-01-04 07:27:00,
2013-01-04 02:32:00,22.1,18.6,29.90,NW,315,0.0,0.0,86,0.00,,---,0.00,VWS V14.01,2013-01-04 07:32:00,
2013-01-04 02:37:00,22.1,18.6,29.90,NW,315,1.7,1.7,86,0.00,,---,0.00,VWS V14.01,2013-01-04 07:37:00,
2013-01-04 02:42:00,22.1,18.6,29.90,SSE,158,0.0,0.0,86,0.00,,---,0.00,VWS V14.01,2013-01-04 07:42:00,
2013-01-04 02:47:00,22.2,18.7,29.90,NNW,338,0.0,0.0,86,0.00,,---,0.00,VWS V14.01,2013-01-04 07:47:00,
2013-01-04 02:52:00,22.2,18.7,29.90,NW,315,0.0,0.0,86,0.00,,---,0.00,VWS V14.01,2013-01-04 07:52:00,
2013-01-04 02:57:00,22.2,18.7,29.90,NNE,22,0.0,0.0,86,0.00,,---,0.00,VWS V14.01,2013-01-04 07:57:00,
2013-01-04 03:02:00,22.4,18.9,29.90,NW,315,0.0,0.0,86,0.00,,---,0.00,VWS V14.01,2013-01-04 08:02:00,
2013-01-04 03:07:00,22.4,18.9,29.90,WNW,292,0.0,0.0,86,0.00,,---,0.00,VWS V14.01,2013-01-04 08:07:00,
2013-01-04 03:12:00,22.4,18.9,29.90,WNW,292,0.0,0.0,86,0.00,,---,0.00,VWS V14.01,2013-01-04 08:12:00,
2013-01-04 03:17:00,22.6,19.0,29.90,West,270,0.0,0.0,86,0.00,,---,0.00,VWS V14.01,2013-01-04 08:17:00,
2013-01-04 03:22:00,22.6,19.0,29.90,West,270,0.0,0.0,86,0.00,,---,0.00,VWS V14.01,2013-01-04 08:22:00,
2013-01-04 03:27:00,22.8,19.2,29.90,West,270,0.0,0.0,86,0.00,,---,0.00,VWS V14.01,2013-01-04 08:27:00,
2013-01-04 03:32:00,22.8,19.2,29.90,WNW,292,0.0,0.0,86,0.00,,---,0.00,VWS V14.01,2013-01-04 08:32:00,
2013-01-04 03:37:00,22.8,19.2,29.90,North,0,0.0,0.0,86,0.00,,---,0.00,VWS V14.01,2013-01-04 08:37:00,
2013-01-04 03:42:00,22.8,19.2,29.90,NNW,338,0.0,0.0,86,0.00,,---,0.00,VWS V14.01,2013-01-04 08:42:00,
2013-01-04 03:47:00,23.0,19.5,29.90,WNW,292,0.0,0.0,86,0.00,,---,0.00,VWS V14.01,2013-01-04 08:47:00,
2013-01-04 03:52:00,23.0,19.5,29.90,WNW,292,0.0,0.0,86,0.00,,---,0.00,VWS V14.01,2013-01-04 08:52:00,
2013-01-04 03:57:00,23.1,19.5,29.90,NW,315,2.9,2.9,86,0.00,,---,0.00,VWS V14.01,2013-01-04 08:57:00,
2013-01-04 04:02:00,23.1,19.5,29.89,NNW,338,0.0,0.0,86,0.00,,---,0.00,VWS V14.01,2013-01-04 09:02:00,
2013-01-04 04:07:00,23.3,19.7,29.89,WNW,292,0.0,0.0,86,0.00,,---,0.00,VWS V14.01,2013-01-04 09:07:00,
2013-01-04 04:12:00,23.3,19.7,29.89,NW,315,2.9,2.9,86,0.00,,---,0.00,VWS V14.01,2013-01-04 09:12:00,
2013-01-04 04:17:00,23.3,19.5,29.89,NW,315,2.9,2.9,85,0.00,,---,0.00,VWS V14.01,2013-01-04 09:17:00,
2013-01-04 04:22:00,23.5,19.7,29.89,NNW,338,0.0,0.0,85,0.00,,---,0.00,VWS V14.01,2013-01-04 09:22:00,
2013-01-04 04:27:00,23.5,19.7,29.89,NW,315,0.0,0.0,85,0.00,,---,0.00,VWS V14.01,2013-01-04 09:27:00,
2013-01-04 04:32:00,23.5,19.7,29.89,West,270,0.0,0.0,85,0.00,,---,0.00,VWS V14.01,2013-01-04 09:32:00,
2013-01-04 04:37:00,23.5,19.7,29.89,WSW,248,0.0,0.0,85,0.00,,---,0.00,VWS V14.01,2013-01-04 09:37:00,
2013-01-04 04:42:00,23.5,19.7,29.89,North,0,0.0,0.0,85,0.00,,---,0.00,VWS V14.01,2013-01-04 09:42:00,
2013-01-04 04:47:00,23.5,19.7,29.89,WNW,292,0.0,0.0,85,0.00,,---,0.00,VWS V14.01,2013-01-04 09:47:00,
2013-01-04 04:52:00,23.5,19.7,29.89,WSW,248,0.0,0.0,85,0.00,,---,0.00,VWS V14.01,2013-01-04 09:52:00,
2013-01-04 04:57:00,23.5,19.7,29.89,NW,315,0.0,0.0,85,0.00,,---,0.00,VWS V14.01,2013-01-04 09:57:00,
2013-01-04 05:02:00,23.5,19.7,29.89,NW,315,0.0,0.0,85,0.00,,---,0.00,VWS V14.01,2013-01-04 10:02:00,
2013-01-04 05:07:00,23.7,19.6,29.89,North,0,0.0,0.0,84,0.00,,---,0.00,VWS V14.01,2013-01-04 10:07:00,
2013-01-04 05:12:00,23.7,19.6,29.89,NW,315,0.0,0.0,84,0.00,,---,0.00,VWS V14.01,2013-01-04 10:12:00,
2013-01-04 05:17:00,23.7,19.6,29.89,WNW,292,0.0,0.0,84,0.00,,---,0.00,VWS V14.01,2013-01-04 10:17:00,
2013-01-04 05:22:00,23.7,19.6,29.89,NW,315,0.0,0.0,84,0.00,,---,0.00,VWS V14.01,2013-01-04 10:22:00,
2013-01-04 05:27:00,23.7,19.6,29.89,NW,315,0.0,0.0,84,0.00,,---,0.00,VWS V14.01,2013-01-04 10:27:00,
2013-01-04 05:32:00,23.7,19.6,29.89,NNW,338,0.0,0.0,84,0.00,,---,0.00,VWS V14.01,2013-01-04 10:32:00,
2013-01-04 05:37:00,23.7,19.6,29.90,ENE,68,0.0,0.0,84,0.00,,---,0.00,VWS V14.01,2013-01-04 10:37:00,
2013-01-04 05:42:00,23.7,19.6,29.89,SW,225,0.0,0.0,84,0.00,,---,0.00,VWS V14.01,2013-01-04 10:42:00,
2013-01-04 05:47:00,23.9,19.8,29.89,NW,315,0.0,0.0,84,0.00,,---,0.00,VWS V14.01,2013-01-04 10:47:00,
2013-01-04 05:52:00,23.9,19.8,29.89,NW,315,1.1,1.1,84,0.00,,---,0.00,VWS V14.01,2013-01-04 10:52:00,
2013-01-04 05:57:00,23.9,19.8,29.89,WNW,292,0.0,0.0,84,0.00,,---,0.00,VWS V14.01,2013-01-04 10:57:00,
2013-01-04 06:02:00,23.9,19.8,29.89,NW,315,0.0,0.0,84,0.00,,---,0.00,VWS V14.01,2013-01-04 11:02:00,
2013-01-04 06:07:00,23.9,19.8,29.90,NNW,338,0.0,0.0,84,0.00,,---,0.00,VWS V14.01,2013-01-04 11:07:00,
2013-01-04 06:12:00,24.0,19.9,29.90,WNW,292,0.0,0.0,84,0.00,,---,0.00,VWS V14.01,2013-01-04 11:12:00,
2013-01-04 06:17:00,24.0,19.9,29.90,NW,315,0.0,0.0,84,0.00,,---,0.00,VWS V14.01,2013-01-04 11:17:00,
2013-01-04 06:22:00,24.0,19.9,29.90,North,0,0.0,0.0,84,0.00,,---,0.00,VWS V14.01,2013-01-04 11:22:00,
2013-01-04 06:27:00,24.0,19.9,29.90,NW,315,0.0,0.0,84,0.00,,---,0.00,VWS V14.01,2013-01-04 11:27:00,
2013-01-04 06:32:00,24.0,19.9,29.90,WNW,292,0.0,0.0,84,0.00,,---,0.00,VWS V14.01,2013-01-04 11:32:00,
2013-01-04 06:37:00,24.0,19.9,29.90,NW,315,0.0,0.0,84,0.00,,---,0.00,VWS V14.01,2013-01-04 11:37:00,
2013-01-04 06:42:00,24.0,20.1,29.90,North,0,0.0,0.0,85,0.00,,---,0.00,VWS V14.01,2013-01-04 11:42:00,
2013-01-04 06:47:00,24.0,20.1,29.89,North,0,2.6,2.6,85,0.00,,---,0.00,VWS V14.01,2013-01-04 11:47:00,
2013-01-04 06:52:00,24.0,20.1,29.89,West,270,0.0,0.0,85,0.00,,---,0.00,VWS V14.01,2013-01-04 11:52:00,
2013-01-04 06:57:00,24.0,20.1,29.89,WSW,248,0.0,0.0,85,0.00,,---,0.00,VWS V14.01,2013-01-04 11:57:00,
2013-01-04 07:02:00,24.0,20.1,29.89,NNE,22,0.0,0.0,85,0.00,,---,0.00,VWS V14.01,2013-01-04 12:02:00,
2013-01-04 07:07:00,24.0,20.1,29.89,NNW,338,1.1,1.1,85,0.00,,---,0.00,VWS V14.01,2013-01-04 12:07:00,
2013-01-04 07:12:00,24.0,20.1,29.88,NNW,338,0.0,0.0,85,0.00,,---,0.00,VWS V14.01,2013-01-04 12:12:00,
2013-01-04 07:17:00,24.0,20.1,29.88,ESE,112,0.0,0.0,85,0.00,,---,0.00,VWS V14.01,2013-01-04 12:17:00,
2013-01-04 07:22:00,24.0,20.1,29.88,NNW,338,1.3,1.3,85,0.00,,---,0.00,VWS V14.01,2013-01-04 12:22:00,
2013-01-04 07:27:00,24.0,20.1,29.88,NW,315,5.1,5.1,85,0.00,,---,0.00,VWS V14.01,2013-01-04 12:27:00,
2013-01-04 07:32:00,24.0,20.1,29.88,NW,315,2.0,2.0,85,0.00,,---,0.00,VWS V14.01,2013-01-04 12:32:00,
2013-01-04 07:37:00,24.0,19.9,29.88,North,0,3.8,3.8,84,0.00,,---,0.00,VWS V14.01,2013-01-04 12:37:00,
2013-01-04 07:42:00,24.0,19.9,29.88,South,180,0.0,0.0,84,0.00,,---,0.00,VWS V14.01,2013-01-04 12:42:00,
2013-01-04 07:47:00,24.0,19.9,29.88,NW,315,0.0,0.0,84,0.00,,---,0.00,VWS V14.01,2013-01-04 12:47:00,
2013-01-04 07:52:00,23.9,19.8,29.88,NE,45,0.0,0.0,84,0.00,,---,0.00,VWS V14.01,2013-01-04 12:52:00,
2013-01-04 07:58:00,23.9,19.8,29.88,NNW,338,4.0,4.0,84,0.00,,---,0.00,VWS V14.01,2013-01-04 12:58:00,
2013-01-04 08:03:00,23.9,19.8,29.88,NNW,338,0.0,0.0,84,0.00,,---,0.00,VWS V14.01,2013-01-04 13:03:00,
2013-01-04 08:08:00,23.9,19.8,29.89,NW,315,0.0,0.0,84,0.00,,---,0.00,VWS V14.01,2013-01-04 13:08:00,
2013-01-04 08:13:00,23.9,19.8,29.89,West,270,0.0,0.0,84,0.00,,---,0.00,VWS V14.01,2013-01-04 13:13:00,
2013-01-04 08:18:00,23.9,19.8,29.88,North,0,0.0,0.0,84,0.00,,---,0.00,VWS V14.01,2013-01-04 13:18:00,
2013-01-04 08:23:00,23.7,19.6,29.89,WNW,292,0.0,0.0,84,0.00,,---,0.00,VWS V14.01,2013-01-04 13:23:00,
2013-01-04 08:28:00,23.7,19.6,29.88,WNW,292,0.0,0.0,84,0.00,,---,0.00,VWS V14.01,2013-01-04 13:28:00,
2013-01-04 08:33:00,23.7,19.6,29.88,NW,315,4.9,4.9,84,0.00,,---,0.00,VWS V14.01,2013-01-04 13:33:00,
2013-01-04 08:38:00,23.7,19.6,29.88,NW,315,7.1,7.1,84,0.00,,---,0.00,VWS V14.01,2013-01-04 13:38:00,
2013-01-04 08:43:00,23.7,19.3,29.88,SSW,202,0.0,0.0,83,0.00,,---,0.00,VWS V14.01,2013-01-04 13:43:00,
2013-01-04 08:48:00,23.7,19.3,29.88,NW,315,2.0,2.0,83,0.00,,---,0.00,VWS V14.01,2013-01-04 13:48:00,
2013-01-04 08:53:00,23.7,19.3,29.88,WSW,248,12.0,12.0,83,0.00,,---,0.00,VWS V14.01,2013-01-04 13:53:00,
2013-01-04 08:58:00,23.7,19.3,29.88,NNW,338,0.0,0.0,83,0.00,,---,0.00,VWS V14.01,2013-01-04 13:58:00,
2013-01-04 09:03:00,23.5,19.1,29.88,NW,315,6.0,6.0,83,0.00,,---,0.00,VWS V14.01,2013-01-04 14:03:00,
2013-01-04 09:08:00,23.7,19.3,29.88,ESE,112,0.0,0.0,83,0.00,,---,0.00,VWS V14.01,2013-01-04 14:08:00,
2013-01-04 09:13:00,23.7,19.3,29.88,WNW,292,0.0,0.0,83,0.00,,---,0.00,VWS V14.01,2013-01-04 14:13:00,
2013-01-04 09:18:00,23.7,19.3,29.88,West,270,0.0,0.0,83,0.00,,---,0.00,VWS V14.01,2013-01-04 14:18:00,
2013-01-04 09:23:00,23.7,19.3,29.88,NW,315,0.0,0.0,83,0.00,,---,0.00,VWS V14.01,2013-01-04 14:23:00,
2013-01-04 09:28:00,23.7,19.3,29.87,NNW,338,6.7,6.7,83,0.00,,---,0.00,VWS V14.01,2013-01-04 14:28:00,
2013-01-04 09:33:00,23.7,19.3,29.88,WNW,292,0.0,0.0,83,0.00,,---,0.00,VWS V14.01,2013-01-04 14:33:00,
2013-01-04 09:38:00,23.7,19.3,29.88,NNW,338,0.0,0.0,83,0.00,,---,0.00,VWS V14.01,2013-01-04 14:38:00,
2013-01-04 09:43:00,23.9,19.5,29.88,NNE,22,0.0,0.0,83,0.00,,---,0.00,VWS V14.01,2013-01-04 14:43:00,
2013-01-04 09:48:00,23.9,19.5,29.88,NW,315,0.0,0.0,83,0.00,,---,0.00,VWS V14.01,2013-01-04 14:48:00,
2013-01-04 09:53:00,24.0,19.6,29.87,West,270,0.0,0.0,83,0.00,,---,0.00,VWS V14.01,2013-01-04 14:53:00,
2013-01-04 09:58:00,24.0,19.6,29.87,NNW,338,2.9,2.9,83,0.00,,---,0.00,VWS V14.01,2013-01-04 14:58:00,
2013-01-04 10:03:00,24.0,19.6,29.88,NW,315,2.0,2.0,83,0.00,,---,0.00,VWS V14.01,2013-01-04 15:03:00,
2013-01-04 10:08:00,24.0,19.6,29.88,NNW,338,0.0,0.0,83,0.00,,---,0.00,VWS V14.01,2013-01-04 15:08:00,
2013-01-04 10:13:00,24.0,19.6,29.88,NNW,338,7.3,7.3,83,0.00,,---,0.00,VWS V14.01,2013-01-04 15:13:00,
2013-01-04 10:18:00,24.0,19.6,29.88,West,270,0.0,0.0,83,0.00,,---,0.00,VWS V14.01,2013-01-04 15:18:00,
2013-01-04 10:23:00,24.4,20.0,29.88,SW,225,0.0,0.0,83,0.00,,---,0.00,VWS V14.01,2013-01-04 15:23:00,
2013-01-04 10:28:00,24.4,20.0,29.88,NW,315,8.2,8.2,83,0.00,,---,0.00,VWS V14.01,2013-01-04 15:28:00,
2013-01-04 10:33:00,24.2,19.8,29.88,WSW,248,0.0,0.0,83,0.00,,---,0.00,VWS V14.01,2013-01-04 15:33:00,
2013-01-04 10:38:00,24.4,20.0,29.88,North,0,1.7,1.7,83,0.00,,---,0.00,VWS V14.01,2013-01-04 15:38:00,
2013-01-04 10:43:00,24.4,20.0,29.88,North,0,0.0,0.0,83,0.00,,---,0.00,VWS V14.01,2013-01-04 15:43:00,
2013-01-04 10:48:00,24.4,20.0,29.88,NNW,338,0.0,0.0,83,0.00,,---,0.00,VWS V14.01,2013-01-04 15:48:00,
2013-01-04 10:53:00,24.4,20.0,29.88,NE,45,0.0,0.0,83,0.00,,---,0.00,VWS V14.01,2013-01-04 15:53:00,
2013-01-04 10:58:00,24.4,20.0,29.88,NW,315,0.0,0.0,83,0.00,,---,0.00,VWS V14.01,2013-01-04 15:58:00,
2013-01-04 11:03:00,24.4,20.0,29.87,ENE,68,0.0,0.0,83,0.00,,---,0.00,VWS V14.01,2013-01-04 16:03:00,
2013-01-04 11:08:00,24.6,20.2,29.87,North,0,0.0,0.0,83,0.00,,---,0.00,VWS V14.01,2013-01-04 16:08:00,
2013-01-04 11:13:00,24.6,20.2,29.87,NW,315,0.0,0.0,83,0.00,,---,0.00,VWS V14.01,2013-01-04 16:13:00,
2013-01-04 11:18:00,24.6,20.2,29.86,WNW,292,2.4,2.4,83,0.00,,---,0.00,VWS V14.01,2013-01-04 16:18:00,
2013-01-04 11:23:00,24.6,20.2,29.86,NNE,22,6.0,6.0,83,0.00,,---,0.00,VWS V14.01,2013-01-04 16:23:00,
2013-01-04 11:28:00,24.6,20.2,29.86,NNW,338,0.0,0.0,83,0.00,,---,0.00,VWS V14.01,2013-01-04 16:28:00,
2013-01-04 11:33:00,24.8,20.4,29.86,WNW,292,0.0,0.0,83,0.00,,---,0.00,VWS V14.01,2013-01-04 16:33:00,
2013-01-04 11:38:00,24.9,20.5,29.86,NNW,338,4.4,4.4,83,0.00,,---,0.00,VWS V14.01,2013-01-04 16:38:00,
2013-01-04 11:43:00,24.9,20.5,29.85,NNE,22,0.0,0.0,83,0.00,,---,0.00,VWS V14.01,2013-01-04 16:43:00,
2013-01-04 11:48:00,24.9,20.5,29.85,NW,315,6.2,6.2,83,0.00,,---,0.00,VWS V14.01,2013-01-04 16:48:00,
2013-01-04 11:53:00,24.9,20.5,29.85,NW,315,0.0,0.0,83,0.00,,---,0.00,VWS V14.01,2013-01-04 16:53:00,
2013-01-04 11:58:00,24.9,20.5,29.84,West,270,0.0,0.0,83,0.00,,---,0.00,VWS V14.01,2013-01-04 16:58:00,
2013-01-04 12:03:00,24.9,20.5,29.84,WNW,292,0.0,0.0,83,0.00,,---,0.00,VWS V14.01,2013-01-04 17:03:00,
2013-01-04 12:08:00,24.9,20.5,29.84,NW,315,0.0,0.0,83,0.00,,---,0.00,VWS V14.01,2013-01-04 17:08:00,
2013-01-04 12:13:00,24.9,20.5,29.84,NNW,338,0.6,0.6,83,0.00,,---,0.00,VWS V14.01,2013-01-04 17:13:00,
2013-01-04 12:18:00,24.9,20.5,29.84,ESE,112,0.4,0.4,83,0.00,,---,0.00,VWS V14.01,2013-01-04 17:18:00,
2013-01-04 12:23:00,25.1,20.7,29.84,West,270,0.0,0.0,83,0.00,,---,0.00,VWS V14.01,2013-01-04 17:23:00,
2013-01-04 12:28:00,25.1,20.7,29.84,NNE,22,0.0,0.0,83,0.00,,---,0.00,VWS V14.01,2013-01-04 17:28:00,
2013-01-04 12:33:00,25.1,20.7,29.83,WNW,292,0.0,0.0,83,0.00,,---,0.00,VWS V14.01,2013-01-04 17:33:00,
2013-01-04 12:38:00,25.1,20.7,29.84,WNW,292,7.6,7.6,83,0.00,,---,0.00,VWS V14.01,2013-01-04 17:38:00,
2013-01-04 12:43:00,25.1,20.7,29.83,WSW,248,0.0,0.0,83,0.00,,---,0.00,VWS V14.01,2013-01-04 17:43:00,
2013-01-04 12:48:00,25.1,20.7,29.83,WNW,292,0.0,0.0,83,0.00,,---,0.00,VWS V14.01,2013-01-04 17:48:00,
2013-01-04 12:53:00,25.1,20.7,29.83,NW,315,1.5,1.5,83,0.00,,---,0.00,VWS V14.01,2013-01-04 17:53:00,
2013-01-04 12:58:00,25.3,20.9,29.82,North,0,0.0,0.0,83,0.00,,---,0.00,VWS V14.01,2013-01-04 17:58:00,
2013-01-04 13:03:00,25.3,20.9,29.82,NW,315,0.0,0.0,83,0.00,,---,0.00,VWS V14.01,2013-01-04 18:03:00,
2013-01-04 13:08:00,25.3,20.9,29.82,NW,315,0.0,0.0,83,0.00,,---,0.00,VWS V14.01,2013-01-04 18:08:00,
2013-01-04 13:13:00,25.3,20.9,29.82,NNW,338,0.0,0.0,83,0.00,,---,0.00,VWS V14.01,2013-01-04 18:13:00,
2013-01-04 13:18:00,25.3,20.9,29.82,NNW,338,6.0,6.0,83,0.00,,---,0.00,VWS V14.01,2013-01-04 18:18:00,
2013-01-04 13:23:00,25.3,20.9,29.82,North,0,0.0,0.0,83,0.00,,---,0.00,VWS V14.01,2013-01-04 18:23:00,
2013-01-04 13:28:00,25.3,20.9,29.82,NNE,22,0.0,0.0,83,0.00,,---,0.00,VWS V14.01,2013-01-04 18:28:00,
2013-01-04 13:33:00,25.3,21.1,29.82,NW,315,0.0,0.0,84,0.00,,---,0.00,VWS V14.01,2013-01-04 18:33:00,
2013-01-04 13:38:00,25.3,21.1,29.82,NE,45,6.2,6.2,84,0.00,,---,0.00,VWS V14.01,2013-01-04 18:38:00,
2013-01-04 13:43:00,25.5,21.4,29.82,WNW,292,4.2,4.2,84,0.00,,---,0.00,VWS V14.01,2013-01-04 18:43:00,
2013-01-04 13:48:00,25.5,21.4,29.82,NW,315,0.0,0.0,84,0.00,,---,0.00,VWS V14.01,2013-01-04 18:48:00,
2013-01-04 13:53:00,25.5,21.4,29.82,NNW,338,0.0,0.0,84,0.00,,---,0.00,VWS V14.01,2013-01-04 18:53:00,
2013-01-04 13:58:00,25.5,21.4,29.81,North,0,0.0,0.0,84,0.00,,---,0.00,VWS V14.01,2013-01-04 18:58:00,
2013-01-04 14:03:00,25.5,21.4,29.81,North,0,0.0,0.0,84,0.00,,---,0.00,VWS V14.01,2013-01-04 19:03:00,
2013-01-04 14:08:00,25.5,21.4,29.81,WNW,292,0.0,0.0,84,0.00,,---,0.00,VWS V14.01,2013-01-04 19:08:00,
2013-01-04 14:13:00,25.5,21.6,29.82,NW,315,0.0,0.0,85,0.00,,---,0.00,VWS V14.01,2013-01-04 19:13:00,
2013-01-04 14:18:00,25.5,21.6,29.82,NNE,22,0.0,0.0,85,0.00,,---,0.00,VWS V14.01,2013-01-04 19:18:00,
2013-01-04 14:23:00,25.5,21.6,29.81,NNW,338,0.0,0.0,85,0.00,,---,0.00,VWS V14.01,2013-01-04 19:23:00,
2013-01-04 14:28:00,25.7,21.8,29.82,WNW,292,0.0,0.0,85,0.00,,---,0.00,VWS V14.01,2013-01-04 19:28:00,
2013-01-04 14:33:00,25.7,21.8,29.81,NNW,338,0.0,0.0,85,0.00,,---,0.00,VWS V14.01,2013-01-04 19:33:00,
2013-01-04 14:38:00,25.8,21.9,29.82,North,0,0.0,0.0,85,0.00,,---,0.00,VWS V14.01,2013-01-04 19:38:00,
2013-01-04 14:43:00,25.8,21.9,29.82,NW,315,4.2,4.2,85,0.00,,---,0.00,VWS V14.01,2013-01-04 19:43:00,
2013-01-04 14:48:00,25.8,21.9,29.81,NNW,338,0.0,0.0,85,0.00,,---,0.00,VWS V14.01,2013-01-04 19:48:00,
2013-01-04 14:53:00,26.0,22.1,29.82,NNW,338,0.0,0.0,85,0.00,,---,0.00,VWS V14.01,2013-01-04 19:53:00,
2013-01-04 14:58:00,26.0,22.1,29.82,NW,315,0.0,0.0,85,0.00,,---,0.00,VWS V14.01,2013-01-04 19:58:00,
2013-01-04 15:03:00,26.0,22.1,29.82,NW,315,0.0,0.0,85,0.00,,---,0.00,VWS V14.01,2013-01-04 20:03:00,
2013-01-04 15:08:00,26.0,22.1,29.82,NE,45,2.0,2.0,85,0.00,,---,0.00,VWS V14.01,2013-01-04 20:08:00,
2013-01-04 15:13:00,26.2,22.3,29.82,NNW,338,0.0,0.0,85,0.00,,---,0.00,VWS V14.01,2013-01-04 20:13:00,
2013-01-04 15:18:00,26.2,22.3,29.82,NW,315,0.0,0.0,85,0.00,,---,0.00,VWS V14.01,2013-01-04 20:18:00,
2013-01-04 15:23:00,26.2,22.3,29.82,North,0,1.1,1.1,85,0.00,,---,0.00,VWS V14.01,2013-01-04 20:23:00,
2013-01-04 15:28:00,26.4,22.5,29.82,NNW,338,8.2,8.2,85,0.00,,---,0.00,VWS V14.01,2013-01-04 20:28:00,
2013-01-04 15:33:00,26.4,22.5,29.82,ESE,112,0.0,0.0,85,0.00,,---,0.00,VWS V14.01,2013-01-04 20:33:00,
2013-01-04 15:38:00,26.4,22.5,29.82,NNW,338,0.0,0.0,85,0.00,,---,0.00,VWS V14.01,2013-01-04 20:38:00,
2013-01-04 15:43:00,26.4,22.8,29.82,SE,135,0.0,0.0,86,0.00,,---,0.00,VWS V14.01,2013-01-04 20:43:00,
2013-01-04 15:48:00,26.4,22.8,29.82,NNW,338,0.0,0.0,86,0.00,,---,0.00,VWS V14.01,2013-01-04 20:48:00,
2013-01-04 15:53:00,26.6,23.0,29.82,North,0,0.0,0.0,86,0.00,,---,0.00,VWS V14.01,2013-01-04 20:53:00,
2013-01-04 15:58:00,26.6,23.0,29.82,WNW,292,0.0,0.0,86,0.00,,---,0.00,VWS V14.01,2013-01-04 20:58:00,
2013-01-04 16:03:00,26.6,23.0,29.83,NW,315,0.0,0.0,86,0.00,,---,0.00,VWS V14.01,2013-01-04 21:03:00,
2013-01-04 16:08:00,26.6,23.0,29.82,NNE,22,1.5,1.5,86,0.00,,---,0.00,VWS V14.01,2013-01-04 21:08:00,
2013-01-04 16:13:00,26.6,23.0,29.82,NNW,338,2.4,2.4,86,0.00,,---,0.00,VWS V14.01,2013-01-04 21:13:00,
2013-01-04 16:18:00,26.6,23.0,29.82,WNW,292,0.0,0.0,86,0.00,,---,0.00,VWS V14.01,2013-01-04 21:18:00,
2013-01-04 16:23:00,26.6,23.0,29.83,West,270,0.0,0.0,86,0.00,,---,0.00,VWS V14.01,2013-01-04 21:23:00,
2013-01-04 16:28:00,26.7,23.1,29.83,NNW,338,2.0,2.0,86,0.00,,---,0.00,VWS V14.01,2013-01-04 21:28:00,
2013-01-04 16:33:00,26.6,23.0,29.82,NW,315,2.2,2.2,86,0.00,,---,0.00,VWS V14.01,2013-01-04 21:33:00,
2013-01-04 16:38:00,26.7,23.1,29.82,NW,315,8.0,8.0,86,0.00,,---,0.00,VWS V14.01,2013-01-04 21:38:00,
2013-01-04 16:43:00,26.6,23.0,29.82,NNW,338,0.0,0.0,86,0.00,,---,0.00,VWS V14.01,2013-01-04 21:43:00,
2013-01-04 16:48:00,26.6,23.0,29.83,WSW,248,0.0,0.0,86,0.00,,---,0.00,VWS V14.01,2013-01-04 21:48:00,
2013-01-04 16:53:00,26.6,23.0,29.83,WNW,292,0.0,0.0,86,0.00,,---,0.00,VWS V14.01,2013-01-04 21:53:00,
2013-01-04 16:58:00,26.6,23.0,29.83,NW,315,4.9,4.9,86,0.00,,---,0.00,VWS V14.01,2013-01-04 21:58:00,
2013-01-04 17:03:00,26.4,22.8,29.83,NNW,338,3.5,3.5,86,0.00,,---,0.00,VWS V14.01,2013-01-04 22:03:00,
2013-01-04 17:08:00,26.4,22.8,29.83,West,270,0.0,0.0,86,0.00,,---,0.00,VWS V14.01,2013-01-04 22:08:00,
2013-01-04 17:13:00,26.4,22.8,29.84,WNW,292,0.0,0.0,86,0.00,,---,0.00,VWS V14.01,2013-01-04 22:13:00,
2013-01-04 17:18:00,26.4,22.8,29.84,West,270,0.0,0.0,86,0.00,,---,0.00,VWS V14.01,2013-01-04 22:18:00,
2013-01-04 17:23:00,26.4,22.8,29.84,North,0,0.0,0.0,86,0.00,,---,0.00,VWS V14.01,2013-01-04 22:23:00,
2013-01-04 17:28:00,26.4,22.8,29.84,NW,315,3.5,3.5,86,0.00,,---,0.00,VWS V14.01,2013-01-04 22:28:00,
2013-01-04 17:33:00,26.4,22.8,29.84,NNW,338,2.6,2.6,86,0.00,,---,0.00,VWS V14.01,2013-01-04 22:33:00,
2013-01-04 17:38:00,26.2,22.6,29.84,North,0,0.0,0.0,86,0.00,,---,0.00,VWS V14.01,2013-01-04 22:38:00,
2013-01-04 17:43:00,26.2,22.6,29.84,WNW,292,0.0,0.0,86,0.00,,---,0.00,VWS V14.01,2013-01-04 22:43:00,
2013-01-04 17:48:00,26.2,22.6,29.84,NW,315,0.0,0.0,86,0.00,,---,0.00,VWS V14.01,2013-01-04 22:48:00,
2013-01-04 17:53:00,26.2,22.6,29.84,WNW,292,0.0,0.0,86,0.00,,---,0.00,VWS V14.01,2013-01-04 22:53:00,
2013-01-04 17:58:00,26.2,22.6,29.84,NNW,338,0.0,0.0,86,0.00,,---,0.00,VWS V14.01,2013-01-04 22:58:00,
2013-01-04 18:03:00,26.2,22.6,29.83,WNW,292,0.0,0.0,86,0.00,,---,0.00,VWS V14.01,2013-01-04 23:03:00,
2013-01-04 18:08:00,26.2,22.6,29.84,WNW,292,0.0,0.0,86,0.00,,---,0.00,VWS V14.01,2013-01-04 23:08:00,
2013-01-04 18:13:00,26.0,22.4,29.83,NNE,22,0.2,0.2,86,0.00,,---,0.00,VWS V14.01,2013-01-04 23:13:00,
2013-01-04 18:18:00,26.0,22.4,29.83,NNW,338,2.2,2.2,86,0.00,,---,0.00,VWS V14.01,2013-01-04 23:18:00,
2013-01-04 18:23:00,26.0,22.4,29.83,WNW,292,3.8,3.8,86,0.00,,---,0.00,VWS V14.01,2013-01-04 23:23:00,
2013-01-04 18:28:00,26.0,22.4,29.84,SW,225,3.3,3.3,86,0.00,,---,0.00,VWS V14.01,2013-01-04 23:28:00,
2013-01-04 18:33:00,26.0,22.4,29.84,WNW,292,5.3,5.3,86,0.00,,---,0.00,VWS V14.01,2013-01-04 23:33:00,
2013-01-04 18:38:00,26.0,22.4,29.84,West,270,0.0,0.0,86,0.00,,---,0.00,VWS V14.01,2013-01-04 23:38:00,
2013-01-04 18:43:00,26.0,22.4,29.84,NNW,338,2.9,2.9,86,0.00,,---,0.00,VWS V14.01,2013-01-04 23:43:00,
2013-01-04 18:49:00,26.0,22.4,29.84,North,0,0.0,0.0,86,0.00,,---,0.00,VWS V14.01,2013-01-04 23:49:00,
2013-01-04 18:54:00,26.2,22.6,29.84,SSW,202,0.0,0.0,86,0.00,,---,0.00,VWS V14.01,2013-01-04 23:54:00,
2013-01-04 18:59:00,26.2,22.6,29.84,NW,315,0.0,0.0,86,0.00,,---,0.00,VWS V14.01,2013-01-04 23:59:00,
2013-01-04 19:04:00,26.2,22.6,29.84,WNW,292,0.0,0.0,86,0.00,,---,0.00,VWS V14.01,2013-01-05 00:04:00,
2013-01-04 19:09:00,26.2,22.6,29.84,NNW,338,0.0,0.0,86,0.00,,---,0.00,VWS V14.01,2013-01-05 00:09:00,
2013-01-04 19:14:00,26.2,22.6,29.84,North,0,5.8,5.8,86,0.00,,---,0.00,VWS V14.01,2013-01-05 00:14:00,
2013-01-04 19:19:00,26.2,22.6,29.84,NE,45,0.0,0.0,86,0.00,,---,0.00,VWS V14.01,2013-01-05 00:19:00,
2013-01-04 19:24:00,26.2,22.6,29.84,NNW,338,3.5,3.5,86,0.00,,---,0.00,VWS V14.01,2013-01-05 00:24:00,
2013-01-04 19:29:00,26.2,22.6,29.84,NW,315,8.2,8.2,86,0.00,,---,0.00,VWS V14.01,2013-01-05 00:29:00,
2013-01-04 19:34:00,26.2,22.6,29.85,North,0,2.9,2.9,86,0.00,,---,0.00,VWS V14.01,2013-01-05 00:34:00,
2013-01-04 19:39:00,26.2,22.6,29.85,NNW,338,0.0,0.0,86,0.00,,---,0.00,VWS V14.01,2013-01-05 00:39:00,
2013-01-04 19:44:00,26.2,22.6,29.85,NNW,338,0.0,0.0,86,0.00,,---,0.00,VWS V14.01,2013-01-05 00:44:00,
2013-01-04 19:49:00,26.2,22.6,29.85,NNW,338,3.3,3.3,86,0.00,,---,0.00,VWS V14.01,2013-01-05 00:49:00,
2013-01-04 19:54:00,26.2,22.6,29.85,NNW,338,3.1,3.1,86,0.00,,---,0.00,VWS V14.01,2013-01-05 00:54:00,
2013-01-04 19:59:00,26.2,22.6,29.86,North,0,7.1,7.1,86,0.00,,---,0.00,VWS V14.01,2013-01-05 00:59:00,
2013-01-04 20:04:00,26.2,22.6,29.85,West,270,0.0,0.0,86,0.00,,---,0.00,VWS V14.01,2013-01-05 01:04:00,
2013-01-04 20:09:00,26.2,22.6,29.85,North,0,0.0,0.6,86,0.00,,---,0.00,VWS V14.01,2013-01-05 01:09:00,
2013-01-04 20:14:00,26.2,22.6,29.85,NW,315,15.2,15.2,86,0.00,,---,0.00,VWS V14.01,2013-01-05 01:14:00,
2013-01-04 20:19:00,26.2,22.6,29.85,NNW,338,1.7,1.7,86,0.00,,---,0.00,VWS V14.01,2013-01-05 01:19:00,
2013-01-04 20:24:00,26.2,22.6,29.86,NNE,22,1.3,1.3,86,0.00,,---,0.00,VWS V14.01,2013-01-05 01:24:00,
2013-01-04 20:29:00,26.2,22.6,29.86,NW,315,0.0,0.0,86,0.00,,---,0.00,VWS V14.01,2013-01-05 01:29:00,
2013-01-04 20:34:00,26.2,22.6,29.86,NNW,338,10.0,10.0,86,0.00,,---,0.00,VWS V14.01,2013-01-05 01:34:00,
2013-01-04 20:39:00,26.2,22.6,29.86,NNW,338,0.0,0.0,86,0.00,,---,0.00,VWS V14.01,2013-01-05 01:39:00,
2013-01-04 20:44:00,26.2,22.6,29.86,WNW,292,0.0,0.0,86,0.00,,---,0.00,VWS V14.01,2013-01-05 01:44:00,
2013-01-04 20:49:00,26.0,22.4,29.86,NW,315,0.0,0.0,86,0.00,,---,0.00,VWS V14.01,2013-01-05 01:49:00,
2013-01-04 20:54:00,26.0,22.4,29.86,SE,135,2.6,2.6,86,0.00,,---,0.00,VWS V14.01,2013-01-05 01:54:00,
2013-01-04 20:59:00,26.0,22.4,29.86,NW,315,11.4,11.4,86,0.00,,---,0.00,VWS V14.01,2013-01-05 01:59:00,
2013-01-04 21:04:00,26.0,22.4,29.86,NW,315,8.5,8.5,86,0.00,,---,0.00,VWS V14.01,2013-01-05 02:04:00,
2013-01-04 21:09:00,26.0,22.4,29.87,NW,315,6.0,6.0,86,0.00,,---,0.00,VWS V14.01,2013-01-05 02:09:00,
2013-01-04 21:14:00,26.0,22.4,29.87,NW,315,6.0,6.0,86,0.00,,---,0.00,VWS V14.01,2013-01-05 02:14:00,
2013-01-04 21:19:00,26.0,22.1,29.86,NW,315,6.0,6.0,85,0.00,,---,0.00,VWS V14.01,2013-01-05 02:19:00,
2013-01-04 21:24:00,26.0,22.1,29.86,WSW,248,0.0,0.0,85,0.00,,---,0.00,VWS V14.01,2013-01-05 02:24:00,
2013-01-04 21:29:00,25.8,21.9,29.86,NNE,22,0.0,0.0,85,0.00,,---,0.00,VWS V14.01,2013-01-05 02:29:00,
2013-01-04 21:34:00,25.8,21.9,29.86,WNW,292,0.0,0.0,85,0.00,,---,0.00,VWS V14.01,2013-01-05 02:34:00,
2013-01-04 21:39:00,25.8,21.9,29.87,North,0,0.0,0.0,85,0.00,,---,0.00,VWS V14.01,2013-01-05 02:39:00,
2013-01-04 21:44:00,25.8,21.9,29.86,SE,135,0.0,0.0,85,0.00,,---,0.00,VWS V14.01,2013-01-05 02:44:00,
2013-01-04 21:49:00,25.8,21.9,29.86,NW,315,0.0,0.0,85,0.00,,---,0.00,VWS V14.01,2013-01-05 02:49:00,
2013-01-04 21:54:00,25.8,21.9,29.87,NNW,338,5.5,5.5,85,0.00,,---,0.00,VWS V14.01,2013-01-05 02:54:00,
2013-01-04 21:59:00,25.8,21.9,29.87,North,0,0.0,0.0,85,0.00,,---,0.00,VWS V14.01,2013-01-05 02:59:00,
2013-01-04 22:04:00,25.8,21.9,29.87,NW,315,14.5,14.5,85,0.00,,---,0.00,VWS V14.01,2013-01-05 03:04:00,
2013-01-04 22:09:00,25.8,21.9,29.87,SSW,202,0.0,0.0,85,0.00,,---,0.00,VWS V14.01,2013-01-05 03:09:00,
2013-01-04 22:14:00,25.8,21.9,29.87,SSW,202,0.0,0.0,85,0.00,,---,0.00,VWS V14.01,2013-01-05 03:14:00,
2013-01-04 22:19:00,25.7,21.8,29.88,North,0,0.0,0.0,85,0.00,,---,0.00,VWS V14.01,2013-01-05 03:19:00,
2013-01-04 22:24:00,25.7,21.8,29.88,SSE,158,0.0,0.0,85,0.00,,---,0.00,VWS V14.01,2013-01-05 03:24:00,
2013-01-04 22:29:00,25.7,21.8,29.88,NW,315,1.3,1.3,85,0.00,,---,0.00,VWS V14.01,2013-01-05 03:29:00,
2013-01-04 22:34:00,25.7,21.8,29.88,NW,315,0.0,0.0,85,0.00,,---,0.00,VWS V14.01,2013-01-05 03:34:00,
2013-01-04 22:39:00,25.7,21.8,29.88,SSE,158,0.0,0.0,85,0.00,,---,0.00,VWS V14.01,2013-01-05 03:39:00,
2013-01-04 22:44:00,25.5,21.6,29.88,North,0,4.4,4.4,85,0.00,,---,0.00,VWS V14.01,2013-01-05 03:44:00,
2013-01-04 22:49:00,25.5,21.6,29.88,NW,315,3.1,3.1,85,0.00,,---,0.00,VWS V14.01,2013-01-05 03:49:00,
2013-01-04 22:54:00,25.5,21.6,29.89,SE,135,0.0,0.0,85,0.00,,---,0.00,VWS V14.01,2013-01-05 03:54:00,
2013-01-04 22:59:00,25.5,21.6,29.89,NNE,22,0.0,0.0,85,0.00,,---,0.00,VWS V14.01,2013-01-05 03:59:00,
2013-01-04 23:04:00,25.5,21.6,29.89,NE,45,0.0,0.0,85,0.00,,---,0.00,VWS V14.01,2013-01-05 04:04:00,
2013-01-04 23:09:00,25.5,21.6,29.89,NNW,338,9.6,9.6,85,0.00,,---,0.00,VWS V14.01,2013-01-05 04:09:00,
2013-01-04 23:14:00,25.5,21.6,29.89,NW,315,7.3,7.3,85,0.00,,---,0.00,VWS V14.01,2013-01-05 04:14:00,
2013-01-04 23:32:00,25.5,21.6,29.89,North,0,0.0,0.0,85,0.00,,---,0.00,VWS V14.01,2013-01-05 04:32:00,
2013-01-04 23:37:00,25.5,21.6,29.89,NNW,338,13.6,13.6,85,0.00,,---,0.00,VWS V14.01,2013-01-05 04:37:00,
2013-01-04 23:42:00,25.5,21.6,29.89,NW,315,3.1,3.1,85,0.00,,---,0.00,VWS V14.01,2013-01-05 04:42:00,
2013-01-04 23:47:00,25.5,21.6,29.89,NNW,338,10.2,10.2,85,0.00,,---,0.00,VWS V14.01,2013-01-05 04:47:00,
2013-01-04 23:52:00,25.5,21.6,29.88,WSW,248,0.0,0.0,85,0.00,,---,0.00,VWS V14.01,2013-01-05 04:52:00,
2013-01-04 23:57:00,25.7,21.8,29.89,SE,135,0.0,0.0,85,0.00,,---,0.00,VWS V14.01,2013-01-05 04:57:00,